createdAt,value
2019-05-06T00:00:35.288Z,91.4702
2019-05-06T00:01:38.307Z,91.4199
2019-05-06T00:02:43.448Z,91.3069
2019-05-06T00:03:47.293Z,91.3283
2019-05-06T00:04:51.287Z,91.2749
2019-05-06T00:05:54.466Z,91.4122
2019-05-06T00:06:58.275Z,91.3207
2019-05-06T00:08:03.897Z,90.8110
2019-05-06T00:09:07.289Z,90.5592
2019-05-06T00:10:13.392Z,90.2937
2019-05-06T00:11:16.303Z,89.9107
2019-05-06T00:12:20.286Z,89.6727
2019-05-06T00:13:24.147Z,89.2927
2019-05-06T00:14:27.266Z,88.9082
2019-05-06T00:15:31.277Z,89.4194
2019-05-06T00:16:34.906Z,90.5608
2019-05-06T00:17:38.325Z,91.2932
2019-05-06T00:18:41.306Z,91.8456
2019-05-06T00:19:45.317Z,92.2164
2019-05-06T00:20:48.248Z,92.7535
2019-05-06T00:21:51.281Z,93.0816
2019-05-06T00:22:55.275Z,93.1334
2019-05-06T00:23:58.286Z,93.1472
2019-05-06T00:25:02.297Z,93.0877
2019-05-06T00:26:05.283Z,92.9625
2019-05-06T00:27:09.302Z,92.8313
2019-05-06T00:28:13.657Z,92.6741
2019-05-06T00:29:17.317Z,92.3400
2019-05-06T00:30:21.288Z,92.3079
2019-05-06T00:31:24.285Z,92.3400
2019-05-06T00:32:28.290Z,92.1263
2019-05-06T00:33:31.292Z,92.3857
2019-05-06T00:34:35.337Z,92.6711
2019-05-06T00:35:38.294Z,92.6436
2019-05-06T00:36:43.285Z,92.7932
2019-05-06T00:37:47.295Z,92.8496
2019-05-06T00:38:50.302Z,92.8313
2019-05-06T00:39:54.320Z,92.8023
2019-05-06T00:40:57.307Z,92.7108
2019-05-06T00:42:01.324Z,92.5383
2019-05-06T00:43:04.818Z,91.9982
2019-05-06T00:44:08.317Z,92.1492
2019-05-06T00:45:13.592Z,92.2438
2019-05-06T00:46:16.285Z,92.4224
2019-05-06T00:47:20.286Z,92.3583
2019-05-06T00:48:24.435Z,91.9188
2019-05-06T00:49:28.267Z,91.3283
2019-05-06T00:50:31.295Z,90.2068
2019-05-06T00:51:34.300Z,89.4194
2019-05-06T00:52:38.308Z,88.8808
2019-05-06T00:53:41.265Z,88.5908
2019-05-06T00:54:45.267Z,88.2521
2019-05-06T00:55:48.335Z,88.4810
2019-05-06T00:56:51.280Z,88.0156
2019-05-06T00:57:54.540Z,87.9973
2019-05-06T00:58:58.283Z,88.3818
2019-05-06T01:00:04.168Z,88.4077
2019-05-06T01:01:07.303Z,88.9708
2019-05-06T01:02:11.294Z,90.5180
2019-05-06T01:03:14.298Z,91.0964
2019-05-06T01:04:18.316Z,91.5297
2019-05-06T01:05:21.285Z,91.7540
2019-05-06T01:06:24.660Z,91.8547
2019-05-06T01:07:28.297Z,91.6365
2019-05-06T01:08:31.286Z,91.7403
2019-05-06T01:09:35.317Z,91.8334
2019-05-06T01:10:38.301Z,91.8975
2019-05-06T01:11:42.316Z,92.0424
2019-05-06T01:12:47.279Z,91.9524
2019-05-06T01:13:50.310Z,92.1080
2019-05-06T01:14:54.626Z,92.1889
2019-05-06T01:15:58.275Z,92.1492
2019-05-06T01:17:01.334Z,92.2026
2019-05-06T01:18:04.362Z,92.2072
2019-05-06T01:19:08.288Z,92.0348
2019-05-06T01:20:11.261Z,92.1202
2019-05-06T01:21:14.667Z,92.1981
2019-05-06T01:22:18.306Z,91.9554
2019-05-06T01:23:23.379Z,92.0790
2019-05-06T01:24:27.265Z,92.1355
2019-05-06T01:25:30.291Z,91.5480
2019-05-06T01:26:34.339Z,91.2703
2019-05-06T01:27:37.278Z,90.7011
2019-05-06T01:28:40.296Z,90.0710
2019-05-06T01:29:44.288Z,89.1829
2019-05-06T01:30:47.311Z,87.2496
2019-05-06T01:31:51.337Z,87.1214
2019-05-06T01:32:54.488Z,86.6834
2019-05-06T01:33:58.288Z,86.4439
2019-05-06T01:35:00.271Z,86.6361
2019-05-06T01:36:04.537Z,86.1509
2019-05-06T01:37:07.320Z,86.0868
2019-05-06T01:38:10.279Z,85.9464
2019-05-06T01:39:14.298Z,85.5375
2019-05-06T01:40:17.307Z,85.1759
2019-05-06T01:41:21.265Z,84.5914
2019-05-06T01:42:24.656Z,84.4587
2019-05-06T01:43:27.286Z,84.5899
2019-05-06T01:44:30.425Z,83.9719
2019-05-06T01:45:34.874Z,83.7613
2019-05-06T01:46:38.320Z,83.4836
2019-05-06T01:47:41.300Z,83.7018
2019-05-06T01:48:45.289Z,83.6576
2019-05-06T01:49:48.288Z,83.4333
2019-05-06T01:50:51.299Z,83.3509
2019-05-06T01:51:55.294Z,83.4333
2019-05-06T01:52:58.312Z,83.5370
2019-05-06T01:54:03.752Z,83.2868
2019-05-06T01:55:07.286Z,83.3127
2019-05-06T01:56:11.304Z,84.2985
2019-05-06T01:57:14.274Z,84.2512
2019-05-06T01:58:17.350Z,84.2435
2019-05-06T01:59:21.272Z,84.5258
2019-05-06T02:00:24.294Z,84.1932
2019-05-06T02:01:28.283Z,84.1337
2019-05-06T02:02:31.303Z,84.2985
2019-05-06T02:03:35.328Z,84.0635
2019-05-06T02:04:38.292Z,83.8956
2019-05-06T02:05:41.270Z,83.6881
2019-05-06T02:06:45.290Z,83.5828
2019-05-06T02:07:48.256Z,82.3011
2019-05-06T02:08:53.994Z,83.0930
2019-05-06T02:09:57.310Z,82.6642
2019-05-06T02:11:01.305Z,82.9007
2019-05-06T02:12:04.678Z,83.1113
2019-05-06T02:13:08.325Z,83.0900
2019-05-06T02:14:13.994Z,83.2624
2019-05-06T02:15:16.291Z,83.5645
2019-05-06T02:16:20.275Z,83.3265
2019-05-06T02:17:23.875Z,84.1657
2019-05-06T02:18:27.311Z,84.9119
2019-05-06T02:19:30.269Z,84.9104
2019-05-06T02:20:33.980Z,84.8646
2019-05-06T02:21:37.270Z,84.9897
2019-05-06T02:22:40.304Z,85.1484
2019-05-06T02:23:44.298Z,84.5823
2019-05-06T02:24:47.297Z,84.2618
2019-05-06T02:25:51.261Z,84.1566
2019-05-06T02:26:54.467Z,84.1337
2019-05-06T02:27:57.304Z,84.7410
2019-05-06T02:29:04.238Z,85.0904
2019-05-06T02:30:07.282Z,85.5375
2019-05-06T02:31:11.298Z,85.5833
2019-05-06T02:32:25.528Z,86.2486
2019-05-06T02:33:24.733Z,87.7501
2019-05-06T02:34:28.357Z,88.8197
2019-05-06T02:35:31.283Z,89.5308
2019-05-06T02:36:35.303Z,90.0206
2019-05-06T02:37:38.265Z,90.5501
2019-05-06T02:38:50.472Z,90.7485
2019-05-06T02:39:53.135Z,90.7668
2019-05-06T02:40:57.262Z,90.6523
2019-05-06T02:42:00.298Z,90.7103
2019-05-06T02:43:04.274Z,90.5425
2019-05-06T02:44:10.250Z,90.3258
2019-05-06T02:45:15.324Z,90.0114
2019-05-06T02:46:19.291Z,89.9565
2019-05-06T02:47:23.012Z,90.0145
2019-05-06T02:48:27.293Z,90.1945
2019-05-06T02:49:32.795Z,90.2342
2019-05-06T02:50:36.299Z,90.1808
2019-05-06T02:51:40.308Z,90.2342
2019-05-06T02:52:44.049Z,90.2449
2019-05-06T02:53:48.295Z,90.7942
2019-05-06T02:54:53.691Z,91.0185
2019-05-06T02:55:57.317Z,91.2367
2019-05-06T02:57:00.265Z,91.3283
2019-05-06T02:58:03.338Z,91.1452
2019-05-06T02:59:07.271Z,91.0079
2019-05-06T03:00:13.085Z,90.9773
2019-05-06T03:01:17.318Z,91.0414
2019-05-06T03:02:35.593Z,91.0948
2019-05-06T03:03:28.287Z,91.2367
2019-05-06T03:04:33.189Z,91.3649
2019-05-06T03:05:36.318Z,91.3146
2019-05-06T03:06:40.306Z,91.4656
2019-05-06T03:07:43.732Z,91.4763
2019-05-06T03:08:47.289Z,91.5084
2019-05-06T03:09:53.173Z,91.5709
2019-05-06T03:10:57.337Z,91.4885
2019-05-06T03:12:03.341Z,91.6182
2019-05-06T03:13:07.299Z,91.6732
2019-05-06T03:14:13.954Z,91.6991
2019-05-06T03:15:17.331Z,91.8654
2019-05-06T03:16:23.764Z,91.9417
2019-05-06T03:17:27.296Z,92.0241
2019-05-06T03:18:32.765Z,92.2728
2019-05-06T03:19:36.285Z,92.3537
2019-05-06T03:20:39.300Z,92.4544
2019-05-06T03:21:44.817Z,92.6482
2019-05-06T03:22:48.291Z,92.7214
2019-05-06T03:23:54.290Z,93.0098
2019-05-06T03:24:57.301Z,93.1823
2019-05-06T03:26:03.732Z,93.2876
2019-05-06T03:27:09.286Z,93.2296
2019-05-06T03:28:13.258Z,93.3028
2019-05-06T03:29:17.287Z,93.3532
2019-05-06T03:30:25.065Z,93.3425
2019-05-06T03:31:28.360Z,93.5027
2019-05-06T03:32:37.568Z,93.6950
2019-05-06T03:33:56.904Z,93.7972
2019-05-06T03:35:07.810Z,94.0444
2019-05-06T03:36:06.126Z,94.1436
2019-05-06T03:37:07.204Z,94.2824
2019-05-06T03:38:13.752Z,94.4747
2019-05-06T03:39:17.282Z,94.6654
2019-05-06T03:40:22.965Z,94.7173
2019-05-06T03:41:26.664Z,94.7814
2019-05-06T03:42:33.288Z,94.8775
2019-05-06T03:43:36.279Z,94.8821
2019-05-06T03:44:40.301Z,94.8959
2019-05-06T03:45:43.292Z,94.8913
2019-05-06T03:46:47.287Z,94.9187
2019-05-06T03:47:50.306Z,94.8226
2019-05-06T03:48:54.297Z,94.8669
2019-05-06T03:49:57.281Z,94.7753
2019-05-06T03:51:00.302Z,94.7250
2019-05-06T03:52:04.300Z,94.6609
2019-05-06T03:53:07.330Z,94.6654
2019-05-06T03:54:12.784Z,94.6654
2019-05-06T03:55:16.275Z,94.7677
2019-05-06T03:56:23.821Z,94.7524
2019-05-06T03:57:27.272Z,94.5937
2019-05-06T03:58:29.342Z,94.5922
2019-05-06T03:59:33.787Z,94.6441
2019-05-06T04:00:37.284Z,94.5891
2019-05-06T04:01:42.834Z,94.6151
2019-05-06T04:02:45.424Z,94.4228
2019-05-06T04:03:53.717Z,94.4152
2019-05-06T04:04:57.281Z,94.3648
2019-05-06T04:06:00.371Z,94.3267
2019-05-06T04:07:04.286Z,94.3786
2019-05-06T04:08:07.309Z,94.3145
2019-05-06T04:09:13.221Z,94.2550
2019-05-06T04:10:16.346Z,94.0612
2019-05-06T04:11:22.667Z,93.9696
2019-05-06T04:12:25.309Z,93.8781
2019-05-06T04:13:28.341Z,93.8552
2019-05-06T04:14:33.785Z,93.8643
2019-05-06T04:15:37.272Z,93.7331
2019-05-06T04:16:44.123Z,93.7728
2019-05-06T04:17:47.281Z,93.8781
2019-05-06T04:18:53.741Z,94.0398
2019-05-06T04:19:57.344Z,94.0352
2019-05-06T04:21:03.595Z,93.9147
2019-05-06T04:22:07.296Z,93.5729
2019-05-06T04:23:12.977Z,93.4569
2019-05-06T04:24:17.290Z,93.4722
2019-05-06T04:25:23.177Z,93.6370
2019-05-06T04:26:27.296Z,93.6599
2019-05-06T04:27:33.278Z,93.8186
2019-05-06T04:28:37.308Z,93.8018
2019-05-06T04:29:42.794Z,93.8430
2019-05-06T04:30:46.317Z,93.8735
2019-05-06T04:31:50.326Z,93.8186
2019-05-06T04:32:53.567Z,93.8643
2019-05-06T04:34:09.982Z,93.6004
2019-05-06T04:35:05.300Z,93.2235
2019-05-06T04:36:08.342Z,93.2616
2019-05-06T04:37:14.463Z,93.2876
2019-05-06T04:38:18.303Z,93.3700
2019-05-06T04:39:23.387Z,93.5866
2019-05-06T04:40:27.307Z,93.8140
2019-05-06T04:41:34.135Z,94.0337
2019-05-06T04:42:37.262Z,94.0429
2019-05-06T04:43:40.319Z,93.9025
2019-05-06T04:44:44.289Z,93.8933
2019-05-06T04:45:47.289Z,93.6172
2019-05-06T04:46:54.087Z,93.7194
2019-05-06T04:47:57.297Z,93.6736
2019-05-06T04:49:03.834Z,93.6233
2019-05-06T04:50:07.286Z,93.6996
2019-05-06T04:51:13.390Z,93.5943
2019-05-06T04:52:17.351Z,93.3349
2019-05-06T04:53:26.474Z,93.1090
2019-05-06T04:54:28.283Z,93.0678
2019-05-06T04:55:33.619Z,93.0312
2019-05-06T04:56:37.315Z,92.9229
2019-05-06T04:57:40.344Z,92.8084
2019-05-06T04:58:43.289Z,92.8084
2019-05-06T04:59:47.330Z,92.5368
2019-05-06T05:00:52.810Z,92.5795
2019-05-06T05:01:57.346Z,92.4697
2019-05-06T05:02:59.319Z,92.5109
2019-05-06T05:04:03.679Z,92.5093
2019-05-06T05:05:06.366Z,92.3903
2019-05-06T05:06:09.280Z,92.1569
2019-05-06T05:07:13.310Z,92.0333
2019-05-06T05:08:16.317Z,91.7952
2019-05-06T05:09:22.865Z,91.2154
2019-05-06T05:10:26.274Z,91.2367
2019-05-06T05:11:33.091Z,91.2139
2019-05-06T05:12:36.309Z,91.0826
2019-05-06T05:13:39.306Z,91.1604
2019-05-06T05:14:43.284Z,91.2016
2019-05-06T05:15:46.306Z,91.1040
2019-05-06T05:16:50.304Z,90.8934
2019-05-06T05:17:53.324Z,90.8400
2019-05-06T05:18:57.298Z,90.5562
2019-05-06T05:20:02.107Z,90.3227
2019-05-06T05:21:05.313Z,90.3227
2019-05-06T05:22:09.276Z,90.0923
2019-05-06T05:23:12.378Z,90.0053
2019-05-06T05:24:16.303Z,90.0343
2019-05-06T05:25:19.309Z,90.0160
2019-05-06T05:26:23.302Z,90.0023
2019-05-06T05:27:26.273Z,89.9733
2019-05-06T05:28:29.346Z,89.9046
2019-05-06T05:29:33.292Z,89.9916
2019-05-06T05:30:36.340Z,90.0511
2019-05-06T05:31:40.306Z,90.0603
2019-05-06T05:32:43.334Z,89.9657
2019-05-06T05:33:47.311Z,89.8375
2019-05-06T05:34:52.094Z,89.5537
2019-05-06T05:35:54.311Z,89.4881
2019-05-06T05:36:58.283Z,89.3141
2019-05-06T05:38:03.049Z,88.9998
2019-05-06T05:39:07.325Z,89.5354
2019-05-06T05:40:10.324Z,89.6162
2019-05-06T05:41:14.293Z,89.8177
2019-05-06T05:42:17.298Z,90.0694
2019-05-06T05:43:20.292Z,90.3960
2019-05-06T05:44:24.341Z,91.2612
2019-05-06T05:45:28.317Z,90.9865
2019-05-06T05:46:33.016Z,90.6477
2019-05-06T05:47:36.322Z,90.5516
2019-05-06T05:48:39.369Z,90.0389
2019-05-06T05:49:42.338Z,89.7215
2019-05-06T05:50:45.296Z,89.7047
2019-05-06T05:51:49.303Z,89.4011
2019-05-06T05:52:52.297Z,89.4530
2019-05-06T05:53:56.320Z,88.7968
2019-05-06T05:55:02.576Z,88.6702
2019-05-06T05:56:06.275Z,88.6336
2019-05-06T05:57:09.296Z,87.8813
2019-05-06T05:58:12.931Z,86.7338
2019-05-06T05:59:16.313Z,85.7176
2019-05-06T06:00:19.331Z,85.2491
2019-05-06T06:01:23.414Z,84.6052
2019-05-06T06:02:26.267Z,84.0146
2019-05-06T06:03:32.020Z,82.6230
2019-05-06T06:04:36.282Z,82.8290
2019-05-06T06:05:39.411Z,83.5828
2019-05-06T06:06:43.337Z,82.1424
2019-05-06T06:07:46.352Z,82.0417
2019-05-06T06:08:52.122Z,82.0218
2019-05-06T06:09:56.298Z,81.8982
2019-05-06T06:11:00.341Z,81.2711
2019-05-06T06:12:03.301Z,81.3947
2019-05-06T06:13:06.285Z,81.6022
2019-05-06T06:14:12.569Z,82.0493
2019-05-06T06:15:16.326Z,82.8504
2019-05-06T06:16:20.324Z,82.0233
2019-05-06T06:17:23.357Z,81.9806
2019-05-06T06:18:27.311Z,81.3184
2019-05-06T06:19:30.317Z,81.5183
2019-05-06T06:20:33.324Z,80.9018
2019-05-06T06:21:37.333Z,80.9598
2019-05-06T06:22:42.449Z,81.1200
2019-05-06T06:23:46.309Z,81.1566
2019-05-06T06:24:49.337Z,80.9705
2019-05-06T06:25:53.328Z,80.9277
2019-05-06T06:26:56.326Z,80.3204
2019-05-06T06:28:02.689Z,79.8428
2019-05-06T06:29:05.338Z,79.8581
2019-05-06T06:30:08.307Z,78.9746
2019-05-06T06:31:12.337Z,78.8281
2019-05-06T06:32:14.329Z,78.5397
2019-05-06T06:33:18.293Z,78.6038
2019-05-06T06:34:22.287Z,78.4390
2019-05-06T06:35:25.316Z,77.7890
2019-05-06T06:36:29.319Z,78.0179
2019-05-06T06:37:33.214Z,78.4741
2019-05-06T06:38:37.299Z,78.1994
2019-05-06T06:39:42.274Z,78.3871
2019-05-06T06:40:46.322Z,78.4695
2019-05-06T06:41:49.258Z,78.3520
2019-05-06T06:42:52.519Z,78.1033
2019-05-06T06:43:56.296Z,78.2238
2019-05-06T06:44:59.304Z,78.1582
2019-05-06T06:46:03.341Z,78.2818
2019-05-06T06:47:06.303Z,78.4848
2019-05-06T06:48:12.224Z,78.3017
2019-05-06T06:49:15.290Z,77.7798
2019-05-06T06:50:18.334Z,77.2992
2019-05-06T06:51:23.552Z,76.9696
2019-05-06T06:52:27.317Z,77.0382
2019-05-06T06:53:32.687Z,77.5814
2019-05-06T06:54:36.327Z,77.2030
2019-05-06T06:55:39.373Z,76.7666
2019-05-06T06:56:42.401Z,76.1913
2019-05-06T06:57:45.328Z,76.8765
2019-05-06T06:58:49.286Z,76.4660
2019-05-06T06:59:52.484Z,76.0754
2019-05-06T07:00:56.284Z,75.2255
2019-05-06T07:01:59.326Z,75.0729
2019-05-06T07:03:03.295Z,75.2743
2019-05-06T07:04:10.444Z,74.7280
2019-05-06T07:05:24.353Z,74.9889
2019-05-06T07:06:22.441Z,75.5550
2019-05-06T07:07:39.532Z,75.5489
2019-05-06T07:08:37.357Z,75.1690
2019-05-06T07:09:41.905Z,75.8618
2019-05-06T07:10:45.314Z,75.3948
2019-05-06T07:11:48.313Z,74.3175
2019-05-06T07:12:50.442Z,74.5190
2019-05-06T07:13:54.298Z,75.3719
2019-05-06T07:14:57.295Z,76.0754
2019-05-06T07:16:02.983Z,75.6283
2019-05-06T07:17:06.300Z,75.5810
2019-05-06T07:18:13.291Z,75.0088
2019-05-06T07:19:17.326Z,75.2239
2019-05-06T07:20:22.869Z,75.4910
2019-05-06T07:21:26.338Z,75.1003
2019-05-06T07:22:29.291Z,74.9264
2019-05-06T07:23:33.336Z,75.0866
2019-05-06T07:24:36.294Z,74.4259
2019-05-06T07:25:42.829Z,73.9910
2019-05-06T07:26:46.285Z,74.1421
2019-05-06T07:27:48.355Z,74.3114
2019-05-06T07:28:52.737Z,74.6548
2019-05-06T07:29:56.300Z,74.4640
2019-05-06T07:31:14.882Z,74.1695
2019-05-06T07:32:08.276Z,73.5790
2019-05-06T07:33:13.340Z,74.7463
2019-05-06T07:34:17.291Z,74.9859
2019-05-06T07:35:22.410Z,74.2336
2019-05-06T07:36:27.338Z,74.2855
2019-05-06T07:37:32.627Z,74.2397
2019-05-06T07:38:36.290Z,73.3837
2019-05-06T07:39:38.272Z,73.0800
2019-05-06T07:40:42.294Z,72.9763
2019-05-06T07:41:46.140Z,73.3364
2019-05-06T07:42:49.289Z,72.8481
2019-05-06T07:43:53.310Z,70.6126
2019-05-06T07:44:56.337Z,69.4331
2019-05-06T07:46:02.460Z,70.6950
2019-05-06T07:47:06.313Z,71.8578
2019-05-06T07:48:12.647Z,72.2057
2019-05-06T07:49:16.343Z,71.8685
2019-05-06T07:50:19.268Z,70.7652
2019-05-06T07:51:23.932Z,70.8644
2019-05-06T07:52:27.358Z,70.9468
2019-05-06T07:53:32.069Z,70.9346
2019-05-06T07:54:35.276Z,69.2531
2019-05-06T07:55:39.309Z,69.1951
2019-05-06T07:56:42.843Z,68.6732
2019-05-06T07:57:46.333Z,67.6661
2019-05-06T07:58:52.762Z,68.2551
2019-05-06T07:59:56.278Z,69.4972
2019-05-06T08:01:02.667Z,69.2302
2019-05-06T08:02:06.298Z,68.6412
2019-05-06T08:03:10.349Z,68.7648
2019-05-06T08:04:14.342Z,63.4409
2019-05-06T08:05:17.301Z,64.4648
2019-05-06T08:06:22.647Z,62.5528
2019-05-06T08:07:26.294Z,63.6469
2019-05-06T08:08:30.353Z,63.9384
2019-05-06T08:09:33.315Z,65.9251
2019-05-06T08:10:37.333Z,62.5696
2019-05-06T08:11:42.155Z,62.4704
2019-05-06T08:12:45.337Z,61.9623
2019-05-06T08:13:49.319Z,62.3133
2019-05-06T08:14:52.548Z,61.7411
2019-05-06T08:15:56.330Z,62.7756
2019-05-06T08:16:58.298Z,62.0111
2019-05-06T08:18:03.485Z,63.7430
2019-05-06T08:19:07.357Z,64.1596
2019-05-06T08:20:12.721Z,63.7522
2019-05-06T08:21:16.337Z,63.3814
2019-05-06T08:22:19.312Z,64.0360
2019-05-06T08:23:23.314Z,67.0665
2019-05-06T08:24:26.346Z,65.3162
2019-05-06T08:25:32.811Z,64.9470
2019-05-06T08:26:36.255Z,64.5716
2019-05-06T08:27:39.307Z,63.5126
2019-05-06T08:28:44.520Z,62.9267
2019-05-06T08:29:48.362Z,60.1633
2019-05-06T08:30:53.122Z,61.0452
2019-05-06T08:31:56.315Z,62.4369
2019-05-06T08:33:02.242Z,62.4277
2019-05-06T08:34:05.303Z,61.7197
2019-05-06T08:35:09.972Z,61.4542
2019-05-06T08:36:14.790Z,62.9953
2019-05-06T08:37:18.301Z,62.9038
2019-05-06T08:38:22.651Z,62.5467
2019-05-06T08:39:26.312Z,62.0386
2019-05-06T08:40:32.089Z,60.5432
2019-05-06T08:41:35.327Z,58.5199
2019-05-06T08:42:38.277Z,59.9786
2019-05-06T08:43:42.331Z,60.5051
2019-05-06T08:44:45.301Z,61.2146
2019-05-06T08:45:49.384Z,60.3418
2019-05-06T08:46:53.254Z,58.9410
2019-05-06T08:47:57.292Z,59.0967
2019-05-06T08:49:00.839Z,57.5753
2019-05-06T08:50:05.305Z,58.0240
2019-05-06T08:51:09.333Z,57.1923
2019-05-06T08:52:12.997Z,55.5901
2019-05-06T08:53:16.308Z,55.0134
2019-05-06T08:54:19.311Z,57.4762
2019-05-06T08:55:23.342Z,60.1434
2019-05-06T08:56:26.324Z,59.1974
2019-05-06T08:57:29.332Z,57.0855
2019-05-06T08:58:33.334Z,55.9838
2019-05-06T08:59:36.341Z,56.0296
2019-05-06T09:00:40.291Z,54.0887
2019-05-06T09:01:43.322Z,53.6294
2019-05-06T09:02:47.307Z,55.6115
2019-05-06T09:04:05.046Z,54.3404
2019-05-06T09:04:58.301Z,54.6242
2019-05-06T09:06:03.168Z,54.5037
2019-05-06T09:07:07.338Z,55.2285
2019-05-06T09:08:13.634Z,57.8729
2019-05-06T09:09:17.369Z,57.8729
2019-05-06T09:10:22.695Z,57.1649
2019-05-06T09:11:26.292Z,54.9905
2019-05-06T09:12:29.320Z,57.7676
2019-05-06T09:13:33.358Z,56.9207
2019-05-06T09:14:36.321Z,57.2427
2019-05-06T09:15:40.307Z,56.4553
2019-05-06T09:16:43.928Z,56.5271
2019-05-06T09:17:48.335Z,57.1221
2019-05-06T09:18:53.341Z,58.3673
2019-05-06T09:19:56.321Z,58.3230
2019-05-06T09:21:02.819Z,58.5016
2019-05-06T09:22:06.302Z,57.6822
2019-05-06T09:23:12.269Z,56.3134
2019-05-06T09:24:16.277Z,55.3689
2019-05-06T09:25:20.324Z,55.5581
2019-05-06T09:26:23.301Z,55.3094
2019-05-06T09:27:26.299Z,53.0343
2019-05-06T09:28:30.347Z,53.2921
2019-05-06T09:29:33.284Z,52.9564
2019-05-06T09:30:37.328Z,52.1660
2019-05-06T09:31:39.327Z,51.0750
2019-05-06T09:32:43.315Z,51.2642
2019-05-06T09:33:46.320Z,50.1839
2019-05-06T09:34:49.283Z,49.8909
2019-05-06T09:35:53.306Z,49.3599
2019-05-06T09:36:56.323Z,50.5760
2019-05-06T09:38:02.209Z,51.6884
2019-05-06T09:39:05.328Z,52.0272
2019-05-06T09:40:09.310Z,51.9036
2019-05-06T09:41:13.342Z,52.3217
2019-05-06T09:42:16.325Z,50.9194
2019-05-06T09:43:22.282Z,51.3954
2019-05-06T09:44:26.333Z,50.5821
2019-05-06T09:45:29.309Z,52.2072
2019-05-06T09:46:32.320Z,53.3089
2019-05-06T09:47:37.273Z,53.5256
2019-05-06T09:48:42.325Z,53.0480
2019-05-06T09:49:46.309Z,53.9879
2019-05-06T09:50:50.419Z,53.0892
2019-05-06T09:51:53.325Z,54.2748
2019-05-06T09:52:57.275Z,53.1258
2019-05-06T09:54:03.742Z,53.0083
2019-05-06T09:55:07.335Z,51.5755
2019-05-06T09:56:12.965Z,51.8212
2019-05-06T09:57:16.314Z,52.2393
2019-05-06T09:58:22.733Z,48.6397
2019-05-06T09:59:26.327Z,50.8797
2019-05-06T10:00:32.694Z,50.3212
2019-05-06T10:01:36.404Z,51.0124
2019-05-06T10:02:42.858Z,50.2510
2019-05-06T10:03:46.333Z,51.4733
2019-05-06T10:04:49.284Z,51.7205
2019-05-06T10:05:55.375Z,52.1920
2019-05-06T10:07:00.103Z,51.3222
2019-05-06T10:08:04.336Z,52.7977
2019-05-06T10:09:07.293Z,52.7001
2019-05-06T10:10:11.316Z,53.0129
2019-05-06T10:11:13.343Z,48.7648
2019-05-06T10:12:16.339Z,49.7810
2019-05-06T10:13:20.308Z,51.8898
2019-05-06T10:14:23.565Z,52.0684
2019-05-06T10:15:27.349Z,52.2164
2019-05-06T10:16:32.394Z,49.1997
2019-05-06T10:17:36.313Z,51.3420
2019-05-06T10:18:39.332Z,51.9265
2019-05-06T10:19:42.886Z,50.0908
2019-05-06T10:20:47.283Z,50.5623
2019-05-06T10:21:50.347Z,51.2306
2019-05-06T10:22:54.323Z,50.6218
2019-05-06T10:23:57.314Z,51.8715
2019-05-06T10:25:03.716Z,50.7973
2019-05-06T10:26:07.303Z,49.8344
2019-05-06T10:27:12.089Z,51.0338
2019-05-06T10:28:16.297Z,51.8074
2019-05-06T10:29:19.312Z,50.2235
2019-05-06T10:30:23.311Z,50.6920
2019-05-06T10:31:26.311Z,52.1157
2019-05-06T10:32:30.318Z,51.8364
2019-05-06T10:33:33.317Z,51.0155
2019-05-06T10:34:36.294Z,51.7311
2019-05-06T10:35:42.685Z,50.0603
2019-05-06T10:36:46.336Z,49.7673
2019-05-06T10:37:52.481Z,50.8370
2019-05-06T10:38:56.325Z,49.9031
2019-05-06T10:40:02.861Z,49.5003
2019-05-06T10:41:07.604Z,50.0267
2019-05-06T10:42:13.211Z,51.7296
2019-05-06T10:43:17.337Z,50.6142
2019-05-06T10:44:22.376Z,49.8268
2019-05-06T10:45:26.305Z,50.3349
2019-05-06T10:46:28.345Z,50.0542
2019-05-06T10:47:33.054Z,51.5831
2019-05-06T10:48:36.336Z,52.5002
2019-05-06T10:49:39.347Z,52.7474
2019-05-06T10:50:43.283Z,50.6767
2019-05-06T10:51:46.351Z,49.1478
2019-05-06T10:52:51.798Z,51.8669
2019-05-06T10:53:55.279Z,49.6071
2019-05-06T10:54:59.329Z,49.6345
2019-05-06T10:56:02.447Z,50.8659
2019-05-06T10:57:05.351Z,50.6050
2019-05-06T10:58:09.269Z,51.5618
2019-05-06T10:59:12.982Z,51.1528
2019-05-06T11:00:16.346Z,50.8385
2019-05-06T11:01:19.320Z,49.9321
2019-05-06T11:02:23.373Z,50.3609
2019-05-06T11:03:27.670Z,47.1809
2019-05-06T11:04:33.144Z,48.9982
2019-05-06T11:05:37.327Z,48.7724
2019-05-06T11:06:42.833Z,48.7266
2019-05-06T11:07:46.317Z,49.8207
2019-05-06T11:08:48.325Z,49.9809
2019-05-06T11:09:53.301Z,48.4932
2019-05-06T11:10:56.359Z,47.1611
2019-05-06T11:11:59.278Z,46.0822
2019-05-06T11:13:03.489Z,46.5812
2019-05-06T11:14:07.330Z,47.1351
2019-05-06T11:15:12.409Z,48.6534
2019-05-06T11:16:17.035Z,49.2668
2019-05-06T11:17:23.264Z,51.1086
2019-05-06T11:18:27.326Z,50.7591
2019-05-06T11:19:30.278Z,50.1457
2019-05-06T11:20:34.333Z,48.5954
2019-05-06T11:21:37.311Z,50.5409
2019-05-06T11:22:43.461Z,49.7154
2019-05-06T11:23:47.347Z,47.8675
2019-05-06T11:24:51.336Z,44.4785
2019-05-06T11:25:54.270Z,45.7649
2019-05-06T11:26:57.292Z,45.2399
2019-05-06T11:28:02.969Z,46.4790
2019-05-06T11:29:06.292Z,47.3045
2019-05-06T11:30:10.308Z,47.2953
2019-05-06T11:31:14.137Z,47.4403
2019-05-06T11:32:21.049Z,48.4215
2019-05-06T11:33:24.325Z,50.8324
2019-05-06T11:34:27.294Z,49.8451
2019-05-06T11:35:32.517Z,49.0394
2019-05-06T11:36:37.631Z,49.0211
2019-05-06T11:37:46.974Z,49.0791
2019-05-06T11:38:52.149Z,48.9006
2019-05-06T11:39:56.322Z,46.3600
2019-05-06T11:40:59.319Z,49.5247
2019-05-06T11:42:23.959Z,49.6437
2019-05-06T11:43:11.962Z,48.9509
2019-05-06T11:44:15.364Z,49.1478
2019-05-06T11:45:19.290Z,48.7907
2019-05-06T11:46:22.850Z,48.4718
2019-05-06T11:47:26.288Z,50.2098
2019-05-06T11:48:29.287Z,48.3986
2019-05-06T11:49:32.748Z,49.6300
2019-05-06T11:50:36.284Z,49.7993
2019-05-06T11:51:39.339Z,48.6854
2019-05-06T11:52:43.674Z,49.3736
2019-05-06T11:53:47.304Z,50.0999
2019-05-06T11:54:52.821Z,46.9520
2019-05-06T11:55:56.330Z,51.0338
2019-05-06T11:56:59.294Z,47.8584
2019-05-06T11:58:02.706Z,48.0735
2019-05-06T11:59:06.301Z,49.9168
2019-05-06T12:00:12.504Z,50.5348
2019-05-06T12:01:16.306Z,51.1040
2019-05-06T12:02:20.297Z,49.9733
2019-05-06T12:03:23.433Z,46.1555
2019-05-06T12:04:28.301Z,48.5634
2019-05-06T12:05:33.012Z,47.8813
2019-05-06T12:06:36.367Z,46.6255
2019-05-06T12:07:40.340Z,46.3066
2019-05-06T12:08:43.370Z,47.0069
2019-05-06T12:09:47.325Z,49.7108
2019-05-06T12:10:52.018Z,51.1864
2019-05-06T12:11:55.301Z,50.4021
2019-05-06T12:12:59.330Z,44.8737
2019-05-06T12:14:02.647Z,46.8086
2019-05-06T12:15:07.162Z,46.7765
2019-05-06T12:16:13.731Z,45.2338
2019-05-06T12:17:18.326Z,44.7181
2019-05-06T12:18:23.071Z,47.2251
2019-05-06T12:19:26.399Z,48.0095
2019-05-06T12:20:30.318Z,47.2480
2019-05-06T12:21:33.294Z,47.4372
2019-05-06T12:22:36.315Z,47.1336
2019-05-06T12:23:39.324Z,45.4353
2019-05-06T12:24:43.308Z,46.1280
2019-05-06T12:25:46.467Z,48.6732
2019-05-06T12:26:49.363Z,48.5756
2019-05-06T12:27:53.301Z,48.3299
2019-05-06T12:28:56.286Z,47.9255
2019-05-06T12:30:00.345Z,45.1194
2019-05-06T12:31:03.306Z,43.2105
2019-05-06T12:32:07.309Z,46.4714
2019-05-06T12:33:10.299Z,47.4189
2019-05-06T12:34:14.764Z,46.0990
2019-05-06T12:35:18.319Z,47.2770
2019-05-06T12:36:21.312Z,48.7922
2019-05-06T12:37:25.318Z,51.1452
2019-05-06T12:38:30.839Z,50.4707
2019-05-06T12:39:35.297Z,50.3838
2019-05-06T12:40:38.355Z,47.9179
2019-05-06T12:41:43.059Z,47.1656
2019-05-06T12:42:47.351Z,47.1488
2019-05-06T12:43:50.329Z,47.6188
2019-05-06T12:44:54.327Z,49.6574
2019-05-06T12:45:57.327Z,47.7714
2019-05-06T12:47:03.340Z,48.0079
2019-05-06T12:48:07.283Z,48.9067
2019-05-06T12:49:12.585Z,47.4357
2019-05-06T12:50:16.299Z,48.6000
2019-05-06T12:51:19.367Z,48.2551
2019-05-06T12:52:23.367Z,48.0217
2019-05-06T12:53:26.319Z,49.5384
2019-05-06T12:54:30.313Z,49.3721